createdAt,value
2022-10-20T00:01:15.946Z,2.70
2022-10-20T00:03:44.810Z,1.27
2022-10-20T00:06:20.955Z,5.70
2022-10-20T00:08:48.895Z,2.28
2022-10-20T00:11:18.318Z,2.92
2022-10-20T00:13:47.339Z,1.90
2022-10-20T00:16:15.195Z,1.40
2022-10-20T00:18:42.843Z,1.08
2022-10-20T00:21:15.790Z,2.60
2022-10-20T00:23:43.008Z,2.55
2022-10-20T00:26:22.531Z,4.35
2022-10-20T00:28:50.709Z,1.38
2022-10-20T00:31:19.766Z,1.95
2022-10-20T00:33:47.466Z,1.58
2022-10-20T00:36:15.976Z,1.40
2022-10-20T00:38:43.232Z,2.05
2022-10-20T00:41:14.814Z,2.42
2022-10-20T00:43:50.206Z,2.53
2022-10-20T00:46:20.488Z,3.47
2022-10-20T00:48:55.752Z,1.50
2022-10-20T00:51:28.059Z,1.38
2022-10-20T00:54:03.493Z,2.47
2022-10-20T00:56:31.564Z,1.67
2022-10-20T00:59:00.729Z,1.70
2022-10-20T01:01:27.966Z,1.73
2022-10-20T01:03:55.717Z,4.15
2022-10-20T01:06:23.445Z,3.42
2022-10-20T01:08:55.053Z,2.20
2022-10-20T01:11:40.886Z,2.60
2022-10-20T01:14:29.797Z,1.65
2022-10-20T01:17:08.973Z,1.75
2022-10-20T01:19:38.935Z,2.58
2022-10-20T01:22:23.582Z,1.98
2022-10-20T01:25:17.626Z,1.95
2022-10-20T01:27:52.987Z,1.17
2022-10-20T01:30:22.921Z,2.90
2022-10-20T01:32:55.968Z,2.20
2022-10-20T01:35:22.946Z,4.13
2022-10-20T01:37:53.184Z,2.58
2022-10-20T01:40:37.790Z,1.55
2022-10-20T01:43:09.286Z,2.08
2022-10-20T01:45:39.913Z,1.35
2022-10-20T01:48:09.417Z,4.40
2022-10-20T01:50:38.530Z,2.10
2022-10-20T01:53:06.188Z,2.15
2022-10-20T01:55:34.734Z,2.47
2022-10-20T01:58:13.612Z,1.80
2022-10-20T02:00:44.844Z,3.60
2022-10-20T02:03:49.436Z,3.72
2022-10-20T02:06:28.730Z,2.03
2022-10-20T02:09:05.857Z,1.52
2022-10-20T02:11:50.061Z,2.22
2022-10-20T02:14:20.484Z,2.05
2022-10-20T02:16:56.870Z,2.55
2022-10-20T02:19:26.807Z,2.92
2022-10-20T02:21:56.548Z,2.80
2022-10-20T02:24:35.601Z,2.00
2022-10-20T02:27:08.265Z,2.25
2022-10-20T02:29:55.601Z,2.33
2022-10-20T02:32:24.534Z,1.48
2022-10-20T02:34:51.766Z,1.90
2022-10-20T02:37:18.671Z,3.00
2022-10-20T02:39:45.648Z,2.88
2022-10-20T02:42:12.853Z,1.80
2022-10-20T02:44:39.818Z,2.50
2022-10-20T02:47:06.722Z,1.63
2022-10-20T02:49:33.724Z,3.40
2022-10-20T02:52:00.713Z,2.10
2022-10-20T02:54:28.907Z,3.47
2022-10-20T02:56:56.144Z,2.22
2022-10-20T02:59:23.114Z,2.65
2022-10-20T03:01:52.610Z,3.40
2022-10-20T03:04:20.642Z,3.00
2022-10-20T03:06:47.799Z,2.03
2022-10-20T03:09:14.830Z,2.88
2022-10-20T03:11:42.704Z,2.33
2022-10-20T03:14:10.488Z,2.03
2022-10-20T03:16:37.358Z,2.05
2022-10-20T03:19:06.359Z,2.75
2022-10-20T03:21:35.163Z,1.48
2022-10-20T03:24:02.430Z,2.58
2022-10-20T03:26:29.506Z,2.72
2022-10-20T03:28:56.572Z,4.13
2022-10-20T03:31:23.878Z,3.13
2022-10-20T03:33:51.258Z,2.85
2022-10-20T03:36:18.547Z,2.55
2022-10-20T03:38:45.400Z,1.48
2022-10-20T03:41:12.411Z,4.03
2022-10-20T03:43:40.310Z,2.72
2022-10-20T03:46:09.759Z,3.40
2022-10-20T03:48:37.447Z,2.88
2022-10-20T03:51:06.452Z,2.17
2022-10-20T03:53:33.698Z,3.00
2022-10-20T03:56:09.517Z,2.20
2022-10-20T03:58:37.654Z,2.15
2022-10-20T04:01:06.817Z,3.08
2022-10-20T04:03:34.021Z,4.22
2022-10-20T04:06:01.404Z,3.13
2022-10-20T04:08:28.322Z,3.05
2022-10-20T04:10:55.337Z,2.25
2022-10-20T04:13:23.483Z,2.17
2022-10-20T04:15:50.701Z,2.95
2022-10-20T04:18:17.969Z,2.00
2022-10-20T04:20:45.075Z,3.58
2022-10-20T04:23:12.359Z,2.00
2022-10-20T04:25:46.021Z,4.30
2022-10-20T04:28:15.482Z,2.85
2022-10-20T04:30:43.491Z,4.95
2022-10-20T04:33:11.241Z,2.55
2022-10-20T04:35:38.476Z,3.65
2022-10-20T04:38:06.200Z,2.95
2022-10-20T04:40:33.480Z,2.72
2022-10-20T04:43:01.110Z,2.42
2022-10-20T04:45:28.787Z,2.47
2022-10-20T04:47:55.787Z,3.25
2022-10-20T04:50:22.861Z,2.60
2022-10-20T04:53:01.947Z,3.53
2022-10-20T04:55:28.971Z,4.82
2022-10-20T04:57:55.973Z,2.78
2022-10-20T05:00:23.222Z,3.67
2022-10-20T05:02:52.240Z,3.58
2022-10-20T05:05:19.512Z,6.30
2022-10-20T05:07:46.556Z,6.60
2022-10-20T05:10:13.436Z,4.05
2022-10-20T05:12:40.410Z,3.33
2022-10-20T05:15:07.771Z,3.85
2022-10-20T05:17:34.743Z,4.75
2022-10-20T05:20:02.287Z,6.25
2022-10-20T05:22:31.272Z,4.70
2022-10-20T05:25:03.999Z,4.88
2022-10-20T05:27:41.243Z,6.32
2022-10-20T05:30:09.509Z,5.40
2022-10-20T05:32:37.248Z,4.72
2022-10-20T05:35:04.735Z,4.25
2022-10-20T05:37:32.917Z,5.35
2022-10-20T05:40:03.558Z,5.32
2022-10-20T05:42:30.613Z,5.03
2022-10-20T05:44:57.522Z,3.83
2022-10-20T05:47:24.735Z,4.60
2022-10-20T05:49:51.625Z,4.35
2022-10-20T05:52:18.601Z,4.80
2022-10-20T05:54:45.755Z,6.03
2022-10-20T05:57:12.666Z,3.72
2022-10-20T05:59:39.590Z,5.45
2022-10-20T06:02:07.101Z,6.35
2022-10-20T06:04:34.195Z,5.45
2022-10-20T06:07:01.138Z,4.93
2022-10-20T06:09:28.171Z,7.72
2022-10-20T06:11:55.401Z,4.10
2022-10-20T06:14:22.667Z,5.63
2022-10-20T06:16:54.853Z,4.90
2022-10-20T06:19:23.403Z,4.78
2022-10-20T06:21:50.648Z,4.72
2022-10-20T06:24:19.338Z,5.22
2022-10-20T06:26:46.759Z,5.22
2022-10-20T06:29:16.449Z,4.13
2022-10-20T06:31:46.689Z,3.67
2022-10-20T06:34:16.941Z,4.55
2022-10-20T06:36:45.111Z,4.43
2022-10-20T06:39:15.355Z,4.38
2022-10-20T06:41:42.839Z,3.95
2022-10-20T06:44:19.927Z,4.07
2022-10-20T06:46:46.928Z,4.70
2022-10-20T06:49:14.782Z,4.85
2022-10-20T06:51:41.669Z,4.57
2022-10-20T06:54:09.516Z,4.80
2022-10-20T06:56:38.818Z,5.45
2022-10-20T06:59:06.059Z,6.15
2022-10-20T07:01:38.135Z,3.67
2022-10-20T07:04:15.139Z,3.80
2022-10-20T07:06:45.058Z,3.90
2022-10-20T07:09:19.105Z,4.53
2022-10-20T07:11:51.510Z,3.65
2022-10-20T07:14:18.604Z,4.45
2022-10-20T07:16:45.620Z,3.72
2022-10-20T07:19:12.736Z,4.20
2022-10-20T07:21:45.336Z,4.60
2022-10-20T07:24:13.582Z,3.97
2022-10-20T07:26:41.599Z,4.80
2022-10-20T07:29:09.808Z,4.22
2022-10-20T07:31:42.464Z,3.92
2022-10-20T07:34:24.995Z,4.55
2022-10-20T07:36:53.985Z,4.38
2022-10-20T07:39:21.100Z,3.38
2022-10-20T07:41:48.456Z,3.47
2022-10-20T07:44:16.869Z,3.58
2022-10-20T07:46:44.690Z,4.70
2022-10-20T07:49:42.325Z,3.72
2022-10-20T07:51:59.058Z,3.97
2022-10-20T07:54:26.065Z,6.53
2022-10-20T07:56:53.308Z,3.55
2022-10-20T07:59:20.421Z,3.95
2022-10-20T08:01:47.697Z,3.85
2022-10-20T08:04:15.804Z,4.28
2022-10-20T08:06:42.910Z,4.05
2022-10-20T08:09:10.899Z,5.05
2022-10-20T08:11:39.092Z,3.10
2022-10-20T08:14:06.268Z,4.22
2022-10-20T08:16:37.596Z,4.55
2022-10-20T08:19:17.690Z,3.78
2022-10-20T08:21:45.577Z,4.35
2022-10-20T08:24:12.520Z,3.78
2022-10-20T08:26:39.627Z,4.63
2022-10-20T08:29:06.800Z,4.18
2022-10-20T08:31:34.183Z,3.45
2022-10-20T08:34:01.264Z,5.05
2022-10-20T08:36:28.374Z,3.78
2022-10-20T08:38:56.502Z,3.15
2022-10-20T08:41:55.206Z,4.60
2022-10-20T08:44:32.361Z,3.75
2022-10-20T08:47:02.701Z,3.03
2022-10-20T08:49:33.750Z,3.05
2022-10-20T08:52:01.856Z,3.70
2022-10-20T08:54:29.505Z,2.50
2022-10-20T08:56:56.680Z,3.20
2022-10-20T08:59:36.581Z,3.15
2022-10-20T09:02:16.984Z,3.40
2022-10-20T09:04:50.526Z,1.95
2022-10-20T09:07:28.490Z,4.13
2022-10-20T09:10:10.556Z,2.25
2022-10-20T09:12:43.710Z,3.97
2022-10-20T09:15:17.774Z,4.15
2022-10-20T09:17:53.378Z,2.55
2022-10-20T09:20:26.132Z,4.90
2022-10-20T09:22:53.204Z,2.95
2022-10-20T09:25:24.128Z,2.33
2022-10-20T09:27:52.036Z,2.30
2022-10-20T09:30:31.424Z,2.35
2022-10-20T09:32:59.199Z,4.45
2022-10-20T09:35:34.127Z,2.15
2022-10-20T09:38:17.508Z,4.47
2022-10-20T09:40:54.747Z,3.13
2022-10-20T09:43:21.791Z,3.95
2022-10-20T09:46:04.934Z,2.10
2022-10-20T09:48:39.110Z,1.70
2022-10-20T09:53:58.808Z,2.97
2022-10-20T09:56:30.560Z,2.92
2022-10-20T09:58:59.467Z,2.92
2022-10-20T10:01:27.211Z,2.53
2022-10-20T10:04:02.312Z,4.95
2022-10-20T10:06:43.283Z,3.53
2022-10-20T10:09:34.560Z,2.88
2022-10-20T10:12:12.437Z,2.38
2022-10-20T10:14:52.861Z,3.05
2022-10-20T10:17:33.827Z,3.20
2022-10-20T10:20:26.898Z,4.30
2022-10-20T10:23:15.975Z,3.47
2022-10-20T10:25:42.977Z,3.42
2022-10-20T10:28:32.242Z,2.67
2022-10-20T10:31:25.107Z,6.97
2022-10-20T10:34:14.716Z,3.10
2022-10-20T10:36:42.001Z,3.95
2022-10-20T10:39:15.841Z,4.75
2022-10-20T10:42:16.515Z,2.58
2022-10-20T10:45:22.254Z,3.47
2022-10-20T10:48:26.080Z,2.92
2022-10-20T10:50:58.975Z,3.35
2022-10-20T10:54:09.374Z,3.67
2022-10-20T10:56:46.090Z,2.42
2022-10-20T10:59:19.438Z,2.65
2022-10-20T11:01:58.412Z,2.65
2022-10-20T11:05:03.260Z,2.08
2022-10-20T11:07:34.165Z,2.80
2022-10-20T11:10:28.261Z,3.92
2022-10-20T11:13:17.632Z,2.33
2022-10-20T11:16:12.081Z,3.42
2022-10-20T11:19:08.257Z,2.13
2022-10-20T11:21:50.561Z,4.05
2022-10-20T11:24:32.769Z,4.05
2022-10-20T11:27:35.187Z,3.35
2022-10-20T11:30:19.256Z,2.60
2022-10-20T11:32:55.080Z,8.65
2022-10-20T11:35:28.838Z,2.35
2022-10-20T11:38:01.999Z,2.42
2022-10-20T11:40:39.674Z,4.40
2022-10-20T11:43:27.736Z,3.58
2022-10-20T11:46:10.369Z,2.50
2022-10-20T11:48:50.819Z,5.03
2022-10-20T11:51:30.265Z,2.65
2022-10-20T11:54:34.975Z,3.42
2022-10-20T11:57:23.835Z,3.85
2022-10-20T12:00:12.297Z,2.42
2022-10-20T12:03:06.982Z,3.72
2022-10-20T12:06:10.007Z,3.40
2022-10-20T12:09:02.823Z,2.97
2022-10-20T12:11:38.870Z,3.75
2022-10-20T12:14:15.065Z,4.03
2022-10-20T12:16:54.510Z,5.22
2022-10-20T12:19:30.519Z,2.95
2022-10-20T12:22:18.730Z,2.78
2022-10-20T12:24:54.929Z,2.58
2022-10-20T12:27:30.083Z,3.72
2022-10-20T12:30:01.486Z,3.72
2022-10-20T12:32:28.446Z,3.35
2022-10-20T12:35:21.350Z,2.85
2022-10-20T12:38:04.034Z,2.70
2022-10-20T12:40:51.686Z,2.97
2022-10-20T12:43:32.051Z,5.45
2022-10-20T12:46:06.478Z,3.30
2022-10-20T12:48:36.143Z,2.22
2022-10-20T12:51:08.742Z,3.25
2022-10-20T12:53:35.931Z,3.17
2022-10-20T12:56:08.908Z,3.88
2022-10-20T12:58:59.565Z,2.15
2022-10-20T13:01:28.654Z,3.35
2022-10-20T13:03:55.585Z,5.88
2022-10-20T13:06:22.568Z,3.28
2022-10-20T13:09:05.104Z,2.17
2022-10-20T13:11:38.322Z,5.63
2022-10-20T13:14:36.154Z,3.65
2022-10-20T13:17:17.656Z,5.72
2022-10-20T13:20:01.416Z,2.65
2022-10-20T13:22:31.609Z,3.63
2022-10-20T13:25:00.164Z,2.55
2022-10-20T13:27:29.015Z,3.47
2022-10-20T13:29:56.267Z,4.22
2022-10-20T13:32:40.072Z,2.80
2022-10-20T13:35:55.759Z,2.70
2022-10-20T13:38:37.038Z,2.83
2022-10-20T13:41:04.670Z,2.70
2022-10-20T13:44:00.831Z,2.17
2022-10-20T13:46:39.422Z,3.75
2022-10-20T13:49:24.976Z,5.20
2022-10-20T13:51:58.431Z,3.22
2022-10-20T13:54:28.954Z,3.78
2022-10-20T13:56:56.971Z,2.20
2022-10-20T13:59:27.335Z,2.88
2022-10-20T14:01:58.768Z,3.78
2022-10-20T14:04:32.189Z,3.50
2022-10-20T14:07:13.248Z,2.28
2022-10-20T14:09:45.317Z,2.33
2022-10-20T14:12:26.393Z,2.28
2022-10-20T14:15:01.490Z,2.90
2022-10-20T14:20:29.322Z,3.72
2022-10-20T14:22:58.517Z,3.13
2022-10-20T14:25:27.458Z,2.55
2022-10-20T14:27:56.494Z,2.92
2022-10-20T14:30:24.282Z,4.35
2022-10-20T14:32:52.604Z,4.80
2022-10-20T14:35:26.973Z,2.88
2022-10-20T14:38:08.399Z,3.80
2022-10-20T14:40:38.298Z,3.05
2022-10-20T14:43:16.584Z,3.97
2022-10-20T14:45:56.363Z,2.70
2022-10-20T14:48:25.563Z,3.40
2022-10-20T14:50:54.169Z,3.03
2022-10-20T14:53:26.981Z,2.97
2022-10-20T14:55:55.810Z,4.57
2022-10-20T14:58:34.764Z,3.92
2022-10-20T15:01:24.452Z,3.97
2022-10-20T15:04:15.943Z,5.28
2022-10-20T15:06:44.275Z,3.58
2022-10-20T15:09:31.776Z,6.32
2022-10-20T15:11:58.901Z,5.90
2022-10-20T15:14:26.105Z,4.78
2022-10-20T15:16:53.058Z,5.57
2022-10-20T15:19:34.885Z,3.72
2022-10-20T15:22:14.961Z,3.58
2022-10-20T15:24:42.028Z,3.70
2022-10-20T15:27:15.850Z,3.95
2022-10-20T15:29:51.193Z,3.42
2022-10-20T15:32:18.759Z,3.45
2022-10-20T15:34:45.762Z,3.67
2022-10-20T15:37:12.702Z,4.45
2022-10-20T15:39:39.964Z,3.05
2022-10-20T15:42:12.124Z,3.00
2022-10-20T15:44:39.042Z,5.38
2022-10-20T15:47:06.133Z,3.33
2022-10-20T15:49:33.046Z,3.80
2022-10-20T15:52:00.169Z,3.85
2022-10-20T15:54:27.174Z,3.47
2022-10-20T15:56:54.111Z,3.35
2022-10-20T15:59:21.816Z,4.35
2022-10-20T16:01:48.999Z,4.38
2022-10-20T16:04:17.664Z,2.60
2022-10-20T16:06:44.978Z,5.93
2022-10-20T16:09:15.156Z,12.00
2022-10-20T16:11:43.949Z,6.75
2022-10-20T16:14:11.395Z,4.07
2022-10-20T16:16:38.671Z,3.45
2022-10-20T16:19:05.689Z,5.25
2022-10-20T16:21:33.813Z,3.58
2022-10-20T16:24:01.207Z,4.63
2022-10-20T16:26:28.711Z,3.50
2022-10-20T16:28:55.757Z,4.07
2022-10-20T16:31:22.688Z,5.90
2022-10-20T16:33:49.732Z,6.15
2022-10-20T16:36:18.234Z,5.18
2022-10-20T16:38:45.192Z,4.60
2022-10-20T16:41:14.586Z,4.82
2022-10-20T16:43:45.661Z,4.32
2022-10-20T16:46:14.365Z,4.03
2022-10-20T16:48:42.713Z,4.38
2022-10-20T16:51:13.132Z,6.97
2022-10-20T16:53:40.079Z,5.65
2022-10-20T16:56:08.085Z,6.60
2022-10-20T16:58:35.680Z,5.30
2022-10-20T17:01:04.968Z,4.75
2022-10-20T17:03:32.456Z,5.25
2022-10-20T17:06:04.563Z,4.00
2022-10-20T17:08:32.200Z,4.85
2022-10-20T17:11:17.045Z,3.83
2022-10-20T17:13:44.686Z,3.17
2022-10-20T17:16:18.307Z,4.75
2022-10-20T17:18:45.581Z,3.97
2022-10-20T17:21:13.882Z,4.38
2022-10-20T17:23:43.735Z,3.85
2022-10-20T17:26:16.685Z,4.45
2022-10-20T17:28:44.591Z,4.68
2022-10-20T17:31:14.449Z,6.28
2022-10-20T17:33:43.053Z,6.95
2022-10-20T17:36:12.983Z,7.13
2022-10-20T17:38:42.212Z,8.48
2022-10-20T17:41:12.953Z,5.38
2022-10-20T17:43:40.508Z,3.30
2022-10-20T17:46:13.685Z,6.88
2022-10-20T17:48:41.256Z,4.15
2022-10-20T17:51:13.237Z,4.13
2022-10-20T17:53:45.679Z,5.80
2022-10-20T17:56:18.786Z,5.40
2022-10-20T17:58:47.810Z,4.22
2022-10-20T18:01:19.408Z,5.10
2022-10-20T18:03:48.777Z,5.10
2022-10-20T18:06:21.665Z,6.43
2022-10-20T18:08:49.510Z,6.50
2022-10-20T18:11:23.530Z,7.07
2022-10-20T18:13:51.803Z,5.60
2022-10-20T18:16:21.234Z,4.60
2022-10-20T18:18:49.390Z,5.55
2022-10-20T18:21:18.370Z,4.93
2022-10-20T18:23:46.590Z,5.90
2022-10-20T18:26:19.679Z,4.70
2022-10-20T18:28:48.542Z,4.50
2022-10-20T18:31:29.663Z,5.80
2022-10-20T18:34:06.522Z,4.50
2022-10-20T18:36:37.920Z,4.57
2022-10-20T18:39:07.869Z,5.57
2022-10-20T18:41:38.364Z,6.32
2022-10-20T18:44:09.369Z,7.13
2022-10-20T18:46:37.353Z,6.07
2022-10-20T18:49:07.269Z,5.90
2022-10-20T18:51:35.544Z,7.93
2022-10-20T18:54:03.790Z,8.52
2022-10-20T18:56:31.494Z,22.98
2022-10-20T18:59:01.543Z,33.80
2022-10-20T19:01:35.204Z,20.05
2022-10-20T19:04:03.579Z,13.85
2022-10-20T19:06:34.225Z,17.45
2022-10-20T19:09:07.679Z,23.33
2022-10-20T19:11:37.207Z,19.98
2022-10-20T19:14:05.093Z,11.80
2022-10-20T19:16:34.234Z,21.35
2022-10-20T19:19:03.473Z,20.65
2022-10-20T19:21:31.806Z,31.05
2022-10-20T19:24:01.479Z,14.20
2022-10-20T19:26:30.338Z,7.50
2022-10-20T19:29:00.706Z,9.27
2022-10-20T19:31:42.118Z,7.93
2022-10-20T19:34:14.203Z,5.38
2022-10-20T19:36:42.345Z,5.55
2022-10-20T19:39:11.604Z,8.43
2022-10-20T19:41:38.962Z,7.95
2022-10-20T19:44:07.086Z,5.43
2022-10-20T19:46:35.292Z,4.75
2022-10-20T19:49:02.513Z,4.53
2022-10-20T19:51:31.415Z,3.88
2022-10-20T19:53:58.603Z,3.83
2022-10-20T19:56:25.855Z,5.45
2022-10-20T19:58:53.005Z,5.53
2022-10-20T20:01:20.041Z,5.15
2022-10-20T20:03:47.579Z,4.88
2022-10-20T20:06:17.744Z,3.63
2022-10-20T20:08:48.679Z,5.07
2022-10-20T20:11:43.322Z,7.13
2022-10-20T20:14:16.520Z,5.18
2022-10-20T20:16:46.102Z,4.75
2022-10-20T20:19:14.626Z,4.57
2022-10-20T20:21:42.102Z,4.13
2022-10-20T20:24:12.882Z,4.68
2022-10-20T20:26:40.562Z,4.13
2022-10-20T20:29:07.781Z,4.53
2022-10-20T20:31:34.773Z,4.80
2022-10-20T20:34:01.965Z,3.47
2022-10-20T20:36:29.323Z,7.93
2022-10-20T20:38:58.070Z,6.82
2022-10-20T20:41:27.042Z,6.43
2022-10-20T20:43:54.294Z,5.65
2022-10-20T20:46:23.091Z,9.55
2022-10-20T20:48:50.939Z,6.15
2022-10-20T20:51:18.499Z,6.65
2022-10-20T20:53:45.591Z,8.32
2022-10-20T20:56:15.053Z,7.68
2022-10-20T20:58:45.273Z,7.10
2022-10-20T21:01:24.542Z,5.65
2022-10-20T21:04:00.418Z,6.07
2022-10-20T21:09:07.675Z,7.03
2022-10-20T21:11:35.088Z,5.75
2022-10-20T21:14:02.407Z,5.55
2022-10-20T21:16:32.456Z,7.10
2022-10-20T21:19:02.955Z,11.48
2022-10-20T21:21:33.721Z,7.90
2022-10-20T21:24:01.999Z,6.13
2022-10-20T21:26:30.313Z,6.97
2022-10-20T21:28:57.830Z,5.35
2022-10-20T21:31:27.067Z,4.82
2022-10-20T21:33:57.158Z,8.98
2022-10-20T21:36:26.614Z,5.90
2022-10-20T21:38:54.363Z,6.70
2022-10-20T21:41:23.827Z,5.53
2022-10-20T21:43:53.075Z,5.85
2022-10-20T21:46:23.178Z,7.05
2022-10-20T21:48:53.148Z,6.28
2022-10-20T21:51:25.638Z,6.35
2022-10-20T21:54:01.577Z,8.05
2022-10-20T21:56:29.412Z,5.80
2022-10-20T21:58:59.368Z,7.82
2022-10-20T22:01:26.640Z,4.90
2022-10-20T22:03:54.114Z,6.38
2022-10-20T22:06:25.214Z,7.97
2022-10-20T22:08:57.944Z,8.82
2022-10-20T22:11:31.037Z,7.25
2022-10-20T22:13:59.105Z,5.95
2022-10-20T22:16:29.018Z,7.57
2022-10-20T22:18:58.368Z,7.63
2022-10-20T22:21:26.297Z,7.30
2022-10-20T22:23:55.129Z,8.10
2022-10-20T22:26:23.445Z,7.07
2022-10-20T22:28:50.979Z,6.13
2022-10-20T22:31:18.247Z,7.35
2022-10-20T22:33:46.234Z,7.68
2022-10-20T22:36:14.108Z,7.82
2022-10-20T22:38:41.418Z,7.65
2022-10-20T22:41:08.355Z,5.95
2022-10-20T22:43:36.066Z,4.47
2022-10-20T22:46:03.380Z,6.97
2022-10-20T22:48:30.526Z,9.88
2022-10-20T22:50:57.938Z,7.63
2022-10-20T22:53:25.827Z,7.03
2022-10-20T22:55:54.275Z,8.60
2022-10-20T22:58:22.938Z,8.32
2022-10-20T23:00:49.952Z,6.30
2022-10-20T23:03:16.934Z,8.50
2022-10-20T23:05:43.798Z,7.68
2022-10-20T23:08:10.767Z,8.93
2022-10-20T23:10:37.665Z,6.97
2022-10-20T23:13:04.676Z,7.93
2022-10-20T23:15:31.712Z,8.85
2022-10-20T23:17:58.681Z,7.10
2022-10-20T23:20:25.774Z,6.35
2022-10-20T23:22:53.416Z,8.40
2022-10-20T23:25:21.171Z,8.10
2022-10-20T23:27:48.212Z,8.50
2022-10-20T23:30:15.235Z,8.05
2022-10-20T23:32:42.181Z,8.68
2022-10-20T23:35:09.945Z,8.43
2022-10-20T23:37:38.412Z,7.70
2022-10-20T23:40:06.298Z,9.55
2022-10-20T23:42:33.250Z,8.73
2022-10-20T23:45:02.787Z,9.73
2022-10-20T23:47:30.030Z,10.77
2022-10-20T23:49:56.917Z,9.52
2022-10-20T23:52:24.114Z,7.25
2022-10-20T23:54:51.087Z,7.20
2022-10-20T23:57:18.517Z,10.00
2022-10-20T23:59:45.574Z,7.53
